sensor_id;sensor_type;location;lat;lon;timestamp;temperature;humidity
12720;DHT22;6424;48.520;11.228;2023-11-21T00:01:20;6.20;99.90
12720;DHT22;6424;48.520;11.228;2023-11-21T00:04:04;6.20;99.90
12720;DHT22;6424;48.520;11.228;2023-11-21T00:06:51;6.20;99.90
12720;DHT22;6424;48.520;11.228;2023-11-21T00:09:35;6.20;99.90
12720;DHT22;6424;48.520;11.228;2023-11-21T00:12:20;6.20;99.90
12720;DHT22;6424;48.520;11.228;2023-11-21T00:15:05;6.30;99.90
12720;DHT22;6424;48.520;11.228;2023-11-21T00:17:49;6.30;99.90
12720;DHT22;6424;48.520;11.228;2023-11-21T00:20:33;6.30;99.90
12720;DHT22;6424;48.520;11.228;2023-11-21T00:23:18;6.30;99.90
12720;DHT22;6424;48.520;11.228;2023-11-21T00:26:02;6.30;99.90
12720;DHT22;6424;48.520;11.228;2023-11-21T00:28:48;6.30;99.90
12720;DHT22;6424;48.520;11.228;2023-11-21T00:31:32;6.40;99.90
12720;DHT22;6424;48.520;11.228;2023-11-21T00:34:16;6.40;99.90
12720;DHT22;6424;48.520;11.228;2023-11-21T00:37:01;6.40;99.90
12720;DHT22;6424;48.520;11.228;2023-11-21T00:39:47;6.40;99.90
12720;DHT22;6424;48.520;11.228;2023-11-21T00:42:31;6.40;99.90
12720;DHT22;6424;48.520;11.228;2023-11-21T00:45:17;6.40;99.90
12720;DHT22;6424;48.520;11.228;2023-11-21T00:48:02;6.40;99.90
12720;DHT22;6424;48.520;11.228;2023-11-21T00:50:49;6.40;99.90
12720;DHT22;6424;48.520;11.228;2023-11-21T00:53:34;6.40;99.90
12720;DHT22;6424;48.520;11.228;2023-11-21T00:56:18;6.40;99.90
12720;DHT22;6424;48.520;11.228;2023-11-21T00:59:03;6.40;99.90
12720;DHT22;6424;48.520;11.228;2023-11-21T01:01:49;6.40;99.90
12720;DHT22;6424;48.520;11.228;2023-11-21T01:04:33;6.40;99.90
12720;DHT22;6424;48.520;11.228;2023-11-21T01:07:17;6.40;99.90
12720;DHT22;6424;48.520;11.228;2023-11-21T01:10:04;6.40;99.90
12720;DHT22;6424;48.520;11.228;2023-11-21T01:12:52;6.50;99.90
12720;DHT22;6424;48.520;11.228;2023-11-21T01:15:36;6.50;99.90
12720;DHT22;6424;48.520;11.228;2023-11-21T01:18:20;6.50;99.90
12720;DHT22;6424;48.520;11.228;2023-11-21T01:21:05;6.50;99.90
12720;DHT22;6424;48.520;11.228;2023-11-21T01:23:50;6.50;99.90
12720;DHT22;6424;48.520;11.228;2023-11-21T01:26:34;6.50;99.90
12720;DHT22;6424;48.520;11.228;2023-11-21T01:29:18;6.50;99.90
12720;DHT22;6424;48.520;11.228;2023-11-21T01:32:04;6.50;99.90
12720;DHT22;6424;48.520;11.228;2023-11-21T01:34:50;6.50;99.90
12720;DHT22;6424;48.520;11.228;2023-11-21T01:37:34;6.50;99.90
12720;DHT22;6424;48.520;11.228;2023-11-21T01:40:19;6.40;99.90
12720;DHT22;6424;48.520;11.228;2023-11-21T01:43:03;6.50;99.90
12720;DHT22;6424;48.520;11.228;2023-11-21T01:45:48;6.40;99.90
12720;DHT22;6424;48.520;11.228;2023-11-21T01:48:33;6.40;99.90
12720;DHT22;6424;48.520;11.228;2023-11-21T01:51:17;6.40;99.90
12720;DHT22;6424;48.520;11.228;2023-11-21T01:54:03;6.40;99.90
12720;DHT22;6424;48.520;11.228;2023-11-21T01:56:49;6.40;99.90
12720;DHT22;6424;48.520;11.228;2023-11-21T01:59:37;6.40;99.90
12720;DHT22;6424;48.520;11.228;2023-11-21T02:02:21;6.40;99.90
12720;DHT22;6424;48.520;11.228;2023-11-21T02:05:06;6.40;99.90
12720;DHT22;6424;48.520;11.228;2023-11-21T02:07:52;6.40;99.90
12720;DHT22;6424;48.520;11.228;2023-11-21T02:10:36;6.40;99.90
12720;DHT22;6424;48.520;11.228;2023-11-21T02:13:21;6.40;99.90
12720;DHT22;6424;48.520;11.228;2023-11-21T02:16:06;6.40;99.90
12720;DHT22;6424;48.520;11.228;2023-11-21T02:18:51;6.40;99.90
12720;DHT22;6424;48.520;11.228;2023-11-21T02:21:36;6.40;99.90
12720;DHT22;6424;48.520;11.228;2023-11-21T02:24:24;6.40;99.90
12720;DHT22;6424;48.520;11.228;2023-11-21T02:27:10;6.40;99.90
12720;DHT22;6424;48.520;11.228;2023-11-21T02:29:55;6.30;99.90
12720;DHT22;6424;48.520;11.228;2023-11-21T02:32:39;6.40;99.90
12720;DHT22;6424;48.520;11.228;2023-11-21T02:35:26;6.40;99.90
12720;DHT22;6424;48.520;11.228;2023-11-21T02:38:11;6.40;99.90
12720;DHT22;6424;48.520;11.228;2023-11-21T02:40:57;6.40;99.90
12720;DHT22;6424;48.520;11.228;2023-11-21T02:43:43;6.30;99.90
12720;DHT22;6424;48.520;11.228;2023-11-21T02:46:27;6.30;99.90
12720;DHT22;6424;48.520;11.228;2023-11-21T02:49:12;6.30;99.90
12720;DHT22;6424;48.520;11.228;2023-11-21T02:51:56;6.30;99.90
12720;DHT22;6424;48.520;11.228;2023-11-21T02:54:40;6.30;99.90
12720;DHT22;6424;48.520;11.228;2023-11-21T02:57:25;6.20;99.90
12720;DHT22;6424;48.520;11.228;2023-11-21T03:00:09;6.30;99.90
12720;DHT22;6424;48.520;11.228;2023-11-21T03:02:59;6.30;99.90
12720;DHT22;6424;48.520;11.228;2023-11-21T03:05:44;6.30;99.90
12720;DHT22;6424;48.520;11.228;2023-11-21T03:08:28;6.20;99.90
12720;DHT22;6424;48.520;11.228;2023-11-21T03:11:12;6.30;99.90
12720;DHT22;6424;48.520;11.228;2023-11-21T03:13:57;6.30;99.90
12720;DHT22;6424;48.520;11.228;2023-11-21T03:16:41;6.30;99.90
12720;DHT22;6424;48.520;11.228;2023-11-21T03:19:25;6.30;99.90
12720;DHT22;6424;48.520;11.228;2023-11-21T03:22:09;6.30;99.90
12720;DHT22;6424;48.520;11.228;2023-11-21T03:24:54;6.30;99.90
12720;DHT22;6424;48.520;11.228;2023-11-21T03:27:38;6.30;99.90
12720;DHT22;6424;48.520;11.228;2023-11-21T03:30:23;6.20;99.90
12720;DHT22;6424;48.520;11.228;2023-11-21T03:33:08;6.20;99.90
12720;DHT22;6424;48.520;11.228;2023-11-21T03:35:52;6.20;99.90
12720;DHT22;6424;48.520;11.228;2023-11-21T03:38:37;6.20;99.90
12720;DHT22;6424;48.520;11.228;2023-11-21T03:41:21;6.20;99.90
12720;DHT22;6424;48.520;11.228;2023-11-21T03:44:06;6.20;99.90
12720;DHT22;6424;48.520;11.228;2023-11-21T03:46:50;6.20;99.90
12720;DHT22;6424;48.520;11.228;2023-11-21T03:49:34;6.20;99.90
12720;DHT22;6424;48.520;11.228;2023-11-21T03:52:18;6.10;99.90
12720;DHT22;6424;48.520;11.228;2023-11-21T03:55:03;6.10;99.90
12720;DHT22;6424;48.520;11.228;2023-11-21T03:57:47;6.10;99.90
12720;DHT22;6424;48.520;11.228;2023-11-21T04:00:32;6.10;99.90
12720;DHT22;6424;48.520;11.228;2023-11-21T04:03:16;6.00;99.90
12720;DHT22;6424;48.520;11.228;2023-11-21T04:06:00;6.00;99.90
12720;DHT22;6424;48.520;11.228;2023-11-21T04:08:45;6.00;99.90
12720;DHT22;6424;48.520;11.228;2023-11-21T04:11:30;6.00;99.90
12720;DHT22;6424;48.520;11.228;2023-11-21T04:14:14;5.90;99.90
12720;DHT22;6424;48.520;11.228;2023-11-21T04:16:59;5.90;99.90
12720;DHT22;6424;48.520;11.228;2023-11-21T04:19:44;5.80;99.90
12720;DHT22;6424;48.520;11.228;2023-11-21T04:22:28;5.80;99.90
12720;DHT22;6424;48.520;11.228;2023-11-21T04:25:14;5.80;99.90
12720;DHT22;6424;48.520;11.228;2023-11-21T04:27:59;5.70;99.90
12720;DHT22;6424;48.520;11.228;2023-11-21T04:30:43;5.70;99.90
12720;DHT22;6424;48.520;11.228;2023-11-21T04:33:27;5.60;99.90
12720;DHT22;6424;48.520;11.228;2023-11-21T04:36:12;5.50;99.90
12720;DHT22;6424;48.520;11.228;2023-11-21T04:38:56;5.50;99.90
12720;DHT22;6424;48.520;11.228;2023-11-21T04:41:41;5.50;99.90
12720;DHT22;6424;48.520;11.228;2023-11-21T04:44:25;5.40;99.90
12720;DHT22;6424;48.520;11.228;2023-11-21T04:47:09;5.40;99.90
12720;DHT22;6424;48.520;11.228;2023-11-21T04:49:54;5.40;99.90
12720;DHT22;6424;48.520;11.228;2023-11-21T04:52:38;5.40;99.90
12720;DHT22;6424;48.520;11.228;2023-11-21T04:55:22;5.40;99.90
12720;DHT22;6424;48.520;11.228;2023-11-21T04:58:07;5.40;99.90
12720;DHT22;6424;48.520;11.228;2023-11-21T05:00:52;5.40;99.90
12720;DHT22;6424;48.520;11.228;2023-11-21T05:03:36;5.50;99.90
12720;DHT22;6424;48.520;11.228;2023-11-21T05:06:22;5.60;99.90
12720;DHT22;6424;48.520;11.228;2023-11-21T05:09:07;5.60;99.90
12720;DHT22;6424;48.520;11.228;2023-11-21T05:11:55;5.60;99.90
12720;DHT22;6424;48.520;11.228;2023-11-21T05:14:39;5.70;99.90
12720;DHT22;6424;48.520;11.228;2023-11-21T05:17:24;5.70;99.90
12720;DHT22;6424;48.520;11.228;2023-11-21T05:20:09;5.80;99.90
12720;DHT22;6424;48.520;11.228;2023-11-21T05:22:53;5.80;99.90
12720;DHT22;6424;48.520;11.228;2023-11-21T05:25:38;5.80;99.90
12720;DHT22;6424;48.520;11.228;2023-11-21T05:28:22;5.90;99.90
12720;DHT22;6424;48.520;11.228;2023-11-21T05:31:07;5.90;99.90
12720;DHT22;6424;48.520;11.228;2023-11-21T05:33:51;5.90;99.90
12720;DHT22;6424;48.520;11.228;2023-11-21T05:36:35;5.90;99.90
12720;DHT22;6424;48.520;11.228;2023-11-21T05:39:19;5.90;99.90
12720;DHT22;6424;48.520;11.228;2023-11-21T05:42:04;5.90;99.90
12720;DHT22;6424;48.520;11.228;2023-11-21T05:44:49;5.90;99.90
12720;DHT22;6424;48.520;11.228;2023-11-21T05:47:33;5.90;99.90
12720;DHT22;6424;48.520;11.228;2023-11-21T05:50:17;5.90;99.90
12720;DHT22;6424;48.520;11.228;2023-11-21T05:53:02;5.90;99.90
12720;DHT22;6424;48.520;11.228;2023-11-21T05:55:46;5.90;99.90
12720;DHT22;6424;48.520;11.228;2023-11-21T05:58:30;5.90;99.90
12720;DHT22;6424;48.520;11.228;2023-11-21T06:01:15;5.90;99.90
12720;DHT22;6424;48.520;11.228;2023-11-21T06:03:59;5.90;99.90
12720;DHT22;6424;48.520;11.228;2023-11-21T06:06:43;5.90;99.90
12720;DHT22;6424;48.520;11.228;2023-11-21T06:09:28;5.90;99.90
12720;DHT22;6424;48.520;11.228;2023-11-21T06:12:12;5.90;99.90
12720;DHT22;6424;48.520;11.228;2023-11-21T06:14:56;5.90;99.90
12720;DHT22;6424;48.520;11.228;2023-11-21T06:17:42;5.90;99.90
12720;DHT22;6424;48.520;11.228;2023-11-21T06:20:26;5.90;99.90
12720;DHT22;6424;48.520;11.228;2023-11-21T06:23:11;5.90;99.90
12720;DHT22;6424;48.520;11.228;2023-11-21T06:25:56;5.80;99.90
12720;DHT22;6424;48.520;11.228;2023-11-21T06:28:41;5.80;99.90
12720;DHT22;6424;48.520;11.228;2023-11-21T06:31:25;5.80;99.90
12720;DHT22;6424;48.520;11.228;2023-11-21T06:34:10;5.80;99.90
12720;DHT22;6424;48.520;11.228;2023-11-21T06:36:54;5.80;99.90
12720;DHT22;6424;48.520;11.228;2023-11-21T06:39:38;5.80;99.90
12720;DHT22;6424;48.520;11.228;2023-11-21T06:42:23;5.80;99.90
12720;DHT22;6424;48.520;11.228;2023-11-21T06:45:08;5.80;99.90
12720;DHT22;6424;48.520;11.228;2023-11-21T06:47:54;5.70;99.90
12720;DHT22;6424;48.520;11.228;2023-11-21T06:50:38;5.80;99.90
12720;DHT22;6424;48.520;11.228;2023-11-21T06:53:22;5.70;99.90
12720;DHT22;6424;48.520;11.228;2023-11-21T06:56:18;5.80;99.90
12720;DHT22;6424;48.520;11.228;2023-11-21T06:59:02;5.70;99.90
12720;DHT22;6424;48.520;11.228;2023-11-21T07:01:50;5.80;99.90
12720;DHT22;6424;48.520;11.228;2023-11-21T07:04:34;5.80;99.90
12720;DHT22;6424;48.520;11.228;2023-11-21T07:07:18;5.90;99.90
12720;DHT22;6424;48.520;11.228;2023-11-21T07:10:03;6.00;99.90
12720;DHT22;6424;48.520;11.228;2023-11-21T07:12:48;6.00;99.90
12720;DHT22;6424;48.520;11.228;2023-11-21T07:15:32;6.10;99.90
12720;DHT22;6424;48.520;11.228;2023-11-21T07:18:16;6.10;99.90
12720;DHT22;6424;48.520;11.228;2023-11-21T07:21:01;6.20;99.90
12720;DHT22;6424;48.520;11.228;2023-11-21T07:23:46;6.20;99.90
12720;DHT22;6424;48.520;11.228;2023-11-21T07:26:31;6.20;99.90
12720;DHT22;6424;48.520;11.228;2023-11-21T07:29:15;6.30;99.90
12720;DHT22;6424;48.520;11.228;2023-11-21T07:31:59;6.30;99.90
12720;DHT22;6424;48.520;11.228;2023-11-21T07:34:45;6.40;99.90
12720;DHT22;6424;48.520;11.228;2023-11-21T07:37:29;6.40;99.90
12720;DHT22;6424;48.520;11.228;2023-11-21T07:40:13;6.50;99.90
12720;DHT22;6424;48.520;11.228;2023-11-21T07:42:57;6.50;99.90
12720;DHT22;6424;48.520;11.228;2023-11-21T07:45:42;6.60;99.90
12720;DHT22;6424;48.520;11.228;2023-11-21T07:48:26;6.70;99.90
12720;DHT22;6424;48.520;11.228;2023-11-21T07:51:10;6.70;99.90
12720;DHT22;6424;48.520;11.228;2023-11-21T07:53:56;6.80;99.90
12720;DHT22;6424;48.520;11.228;2023-11-21T07:56:41;6.90;99.90
12720;DHT22;6424;48.520;11.228;2023-11-21T07:59:25;6.90;99.90
12720;DHT22;6424;48.520;11.228;2023-11-21T08:02:10;7.00;99.90
12720;DHT22;6424;48.520;11.228;2023-11-21T08:04:55;7.00;99.90
12720;DHT22;6424;48.520;11.228;2023-11-21T08:07:40;7.00;99.90
12720;DHT22;6424;48.520;11.228;2023-11-21T08:10:25;7.10;99.90
12720;DHT22;6424;48.520;11.228;2023-11-21T08:13:10;7.10;99.90
12720;DHT22;6424;48.520;11.228;2023-11-21T08:15:58;7.20;99.90
12720;DHT22;6424;48.520;11.228;2023-11-21T08:18:46;7.20;99.90
12720;DHT22;6424;48.520;11.228;2023-11-21T08:21:31;7.30;99.90
12720;DHT22;6424;48.520;11.228;2023-11-21T08:24:14;7.30;99.90
12720;DHT22;6424;48.520;11.228;2023-11-21T08:26:58;7.40;99.90
12720;DHT22;6424;48.520;11.228;2023-11-21T08:29:43;7.40;99.90
12720;DHT22;6424;48.520;11.228;2023-11-21T08:32:27;7.50;99.90
12720;DHT22;6424;48.520;11.228;2023-11-21T08:35:11;7.40;99.90
12720;DHT22;6424;48.520;11.228;2023-11-21T08:37:56;7.40;99.90
12720;DHT22;6424;48.520;11.228;2023-11-21T08:40:41;7.40;99.90
12720;DHT22;6424;48.520;11.228;2023-11-21T08:43:25;7.40;99.90
12720;DHT22;6424;48.520;11.228;2023-11-21T08:46:11;7.40;99.90
12720;DHT22;6424;48.520;11.228;2023-11-21T08:48:56;7.40;99.90
12720;DHT22;6424;48.520;11.228;2023-11-21T08:51:40;7.40;99.90
12720;DHT22;6424;48.520;11.228;2023-11-21T08:54:24;7.40;99.90
12720;DHT22;6424;48.520;11.228;2023-11-21T08:57:09;7.40;99.90
12720;DHT22;6424;48.520;11.228;2023-11-21T08:59:54;7.40;99.90
12720;DHT22;6424;48.520;11.228;2023-11-21T09:02:41;7.40;99.90
12720;DHT22;6424;48.520;11.228;2023-11-21T09:05:26;7.40;99.90
12720;DHT22;6424;48.520;11.228;2023-11-21T09:08:10;7.40;99.90
12720;DHT22;6424;48.520;11.228;2023-11-21T09:10:54;7.50;99.90
12720;DHT22;6424;48.520;11.228;2023-11-21T09:13:38;7.60;99.90
12720;DHT22;6424;48.520;11.228;2023-11-21T09:16:23;7.70;99.90
12720;DHT22;6424;48.520;11.228;2023-11-21T09:19:07;7.80;99.90
12720;DHT22;6424;48.520;11.228;2023-11-21T09:21:52;7.90;99.90
12720;DHT22;6424;48.520;11.228;2023-11-21T09:24:36;8.10;99.90
12720;DHT22;6424;48.520;11.228;2023-11-21T09:27:21;8.30;99.90
12720;DHT22;6424;48.520;11.228;2023-11-21T09:30:06;8.50;99.90
12720;DHT22;6424;48.520;11.228;2023-11-21T09:32:54;8.50;99.90
12720;DHT22;6424;48.520;11.228;2023-11-21T09:35:39;8.60;99.90
12720;DHT22;6424;48.520;11.228;2023-11-21T09:38:23;8.80;99.90
12720;DHT22;6424;48.520;11.228;2023-11-21T09:41:34;9.00;99.90
12720;DHT22;6424;48.520;11.228;2023-11-21T09:44:32;9.10;99.90
12720;DHT22;6424;48.520;11.228;2023-11-21T09:47:18;9.20;99.90
12720;DHT22;6424;48.520;11.228;2023-11-21T09:50:06;9.30;99.90
12720;DHT22;6424;48.520;11.228;2023-11-21T09:55:51;9.40;99.90
12720;DHT22;6424;48.520;11.228;2023-11-21T09:58:36;9.50;99.90
12720;DHT22;6424;48.520;11.228;2023-11-21T10:01:21;9.70;99.90
12720;DHT22;6424;48.520;11.228;2023-11-21T10:04:08;9.80;99.90
12720;DHT22;6424;48.520;11.228;2023-11-21T10:06:56;9.80;99.90
12720;DHT22;6424;48.520;11.228;2023-11-21T10:09:41;9.80;99.90
12720;DHT22;6424;48.520;11.228;2023-11-21T10:12:26;9.70;99.90
12720;DHT22;6424;48.520;11.228;2023-11-21T10:15:12;9.70;99.90
12720;DHT22;6424;48.520;11.228;2023-11-21T10:18:05;9.60;99.90
12720;DHT22;6424;48.520;11.228;2023-11-21T10:20:51;9.70;99.90
12720;DHT22;6424;48.520;11.228;2023-11-21T10:23:38;9.70;99.90
12720;DHT22;6424;48.520;11.228;2023-11-21T10:26:23;9.60;99.90
12720;DHT22;6424;48.520;11.228;2023-11-21T10:29:07;9.60;99.90
12720;DHT22;6424;48.520;11.228;2023-11-21T10:31:52;9.60;99.90
12720;DHT22;6424;48.520;11.228;2023-11-21T10:34:39;9.60;99.90
12720;DHT22;6424;48.520;11.228;2023-11-21T10:37:25;9.60;99.90
12720;DHT22;6424;48.520;11.228;2023-11-21T10:40:11;9.50;99.90
12720;DHT22;6424;48.520;11.228;2023-11-21T10:43:06;9.50;99.90
12720;DHT22;6424;48.520;11.228;2023-11-21T10:45:52;9.50;99.90
12720;DHT22;6424;48.520;11.228;2023-11-21T10:48:44;9.50;99.90
12720;DHT22;6424;48.520;11.228;2023-11-21T10:51:28;9.60;99.90
12720;DHT22;6424;48.520;11.228;2023-11-21T10:54:12;9.80;99.90
12720;DHT22;6424;48.520;11.228;2023-11-21T10:56:58;9.80;99.90
12720;DHT22;6424;48.520;11.228;2023-11-21T10:59:48;9.80;99.90
12720;DHT22;6424;48.520;11.228;2023-11-21T11:02:36;9.70;99.90
12720;DHT22;6424;48.520;11.228;2023-11-21T11:05:22;9.60;99.90
12720;DHT22;6424;48.520;11.228;2023-11-21T11:08:12;9.50;99.90
12720;DHT22;6424;48.520;11.228;2023-11-21T11:10:57;9.40;99.90
12720;DHT22;6424;48.520;11.228;2023-11-21T11:13:45;9.40;99.90
12720;DHT22;6424;48.520;11.228;2023-11-21T11:16:30;9.40;99.90
12720;DHT22;6424;48.520;11.228;2023-11-21T11:19:14;9.50;99.90
12720;DHT22;6424;48.520;11.228;2023-11-21T11:28:20;10.20;99.90
12720;DHT22;6424;48.520;11.228;2023-11-21T11:34:32;10.50;99.90
12720;DHT22;6424;48.520;11.228;2023-11-21T11:37:16;10.50;99.90
12720;DHT22;6424;48.520;11.228;2023-11-21T11:40:06;10.20;99.90
12720;DHT22;6424;48.520;11.228;2023-11-21T11:42:57;10.10;99.90
12720;DHT22;6424;48.520;11.228;2023-11-21T11:45:43;10.20;99.90
12720;DHT22;6424;48.520;11.228;2023-11-21T11:48:28;10.20;99.90
12720;DHT22;6424;48.520;11.228;2023-11-21T11:51:14;10.10;99.90
12720;DHT22;6424;48.520;11.228;2023-11-21T11:54:01;9.90;99.90
12720;DHT22;6424;48.520;11.228;2023-11-21T11:56:47;9.60;99.90
12720;DHT22;6424;48.520;11.228;2023-11-21T12:03:06;9.00;99.90
12720;DHT22;6424;48.520;11.228;2023-11-21T12:05:51;8.90;99.90
12720;DHT22;6424;48.520;11.228;2023-11-21T12:08:42;8.90;99.90
12720;DHT22;6424;48.520;11.228;2023-11-21T12:11:32;8.90;99.90
12720;DHT22;6424;48.520;11.228;2023-11-21T12:14:17;8.90;99.90
12720;DHT22;6424;48.520;11.228;2023-11-21T12:17:02;8.90;99.90
12720;DHT22;6424;48.520;11.228;2023-11-21T12:19:48;8.90;99.90
12720;DHT22;6424;48.520;11.228;2023-11-21T12:22:36;8.90;99.90
12720;DHT22;6424;48.520;11.228;2023-11-21T12:25:26;8.90;99.90
12720;DHT22;6424;48.520;11.228;2023-11-21T12:28:13;9.00;99.90
12720;DHT22;6424;48.520;11.228;2023-11-21T12:30:58;9.10;99.90
12720;DHT22;6424;48.520;11.228;2023-11-21T12:33:42;9.30;99.90
12720;DHT22;6424;48.520;11.228;2023-11-21T12:36:26;9.30;99.90
12720;DHT22;6424;48.520;11.228;2023-11-21T12:39:13;9.30;99.90
12720;DHT22;6424;48.520;11.228;2023-11-21T12:41:58;9.20;99.90
12720;DHT22;6424;48.520;11.228;2023-11-21T12:44:46;9.20;99.90
12720;DHT22;6424;48.520;11.228;2023-11-21T12:47:34;9.30;99.90
12720;DHT22;6424;48.520;11.228;2023-11-21T12:50:23;9.40;99.90
12720;DHT22;6424;48.520;11.228;2023-11-21T12:53:12;9.60;99.90
12720;DHT22;6424;48.520;11.228;2023-11-21T12:55:56;9.70;99.90
12720;DHT22;6424;48.520;11.228;2023-11-21T12:58:45;9.70;99.90
12720;DHT22;6424;48.520;11.228;2023-11-21T13:01:34;9.60;99.90
12720;DHT22;6424;48.520;11.228;2023-11-21T13:04:20;9.40;99.90
12720;DHT22;6424;48.520;11.228;2023-11-21T13:07:05;9.40;99.90
12720;DHT22;6424;48.520;11.228;2023-11-21T13:09:58;9.30;99.90
12720;DHT22;6424;48.520;11.228;2023-11-21T13:12:44;9.10;99.90
12720;DHT22;6424;48.520;11.228;2023-11-21T13:15:32;9.00;99.90
12720;DHT22;6424;48.520;11.228;2023-11-21T13:18:17;8.90;99.90
12720;DHT22;6424;48.520;11.228;2023-11-21T13:21:03;8.90;99.90
12720;DHT22;6424;48.520;11.228;2023-11-21T13:23:53;8.80;99.90
12720;DHT22;6424;48.520;11.228;2023-11-21T13:26:38;8.70;99.90
12720;DHT22;6424;48.520;11.228;2023-11-21T13:29:22;8.70;99.90
12720;DHT22;6424;48.520;11.228;2023-11-21T13:32:07;8.70;99.90
12720;DHT22;6424;48.520;11.228;2023-11-21T13:34:56;8.70;99.90
12720;DHT22;6424;48.520;11.228;2023-11-21T13:37:40;8.70;99.90
12720;DHT22;6424;48.520;11.228;2023-11-21T13:40:24;8.70;99.90
12720;DHT22;6424;48.520;11.228;2023-11-21T13:43:14;8.70;99.90
12720;DHT22;6424;48.520;11.228;2023-11-21T13:45:59;8.70;99.90
12720;DHT22;6424;48.520;11.228;2023-11-21T13:48:54;8.60;99.90
12720;DHT22;6424;48.520;11.228;2023-11-21T13:51:40;8.60;99.90
12720;DHT22;6424;48.520;11.228;2023-11-21T13:54:32;8.60;99.90
12720;DHT22;6424;48.520;11.228;2023-11-21T13:57:16;8.60;99.90
12720;DHT22;6424;48.520;11.228;2023-11-21T14:00:00;8.70;99.90
12720;DHT22;6424;48.520;11.228;2023-11-21T14:02:45;8.70;99.90
12720;DHT22;6424;48.520;11.228;2023-11-21T14:05:30;8.60;99.90
12720;DHT22;6424;48.520;11.228;2023-11-21T14:08:15;8.60;99.90
12720;DHT22;6424;48.520;11.228;2023-11-21T14:11:04;8.60;99.90
12720;DHT22;6424;48.520;11.228;2023-11-21T14:13:51;8.60;99.90
12720;DHT22;6424;48.520;11.228;2023-11-21T14:16:35;8.50;99.90
12720;DHT22;6424;48.520;11.228;2023-11-21T14:19:19;8.40;99.90
12720;DHT22;6424;48.520;11.228;2023-11-21T14:22:03;8.20;99.90
12720;DHT22;6424;48.520;11.228;2023-11-21T14:24:48;8.10;99.90
12720;DHT22;6424;48.520;11.228;2023-11-21T14:27:34;8.00;99.90
12720;DHT22;6424;48.520;11.228;2023-11-21T14:30:18;7.90;99.90
12720;DHT22;6424;48.520;11.228;2023-11-21T14:33:05;7.70;99.90
12720;DHT22;6424;48.520;11.228;2023-11-21T14:35:50;7.60;99.90
12720;DHT22;6424;48.520;11.228;2023-11-21T14:38:35;7.50;99.90
12720;DHT22;6424;48.520;11.228;2023-11-21T14:41:19;7.50;99.90
12720;DHT22;6424;48.520;11.228;2023-11-21T14:44:03;7.50;99.90
12720;DHT22;6424;48.520;11.228;2023-11-21T14:46:48;7.40;99.90
12720;DHT22;6424;48.520;11.228;2023-11-21T14:49:34;7.40;99.90
12720;DHT22;6424;48.520;11.228;2023-11-21T14:52:34;7.40;99.90
12720;DHT22;6424;48.520;11.228;2023-11-21T14:55:19;7.40;99.90
12720;DHT22;6424;48.520;11.228;2023-11-21T14:58:05;7.40;99.90
12720;DHT22;6424;48.520;11.228;2023-11-21T15:00:49;7.40;99.90
12720;DHT22;6424;48.520;11.228;2023-11-21T15:03:35;7.40;99.90
12720;DHT22;6424;48.520;11.228;2023-11-21T15:06:27;7.40;99.90
12720;DHT22;6424;48.520;11.228;2023-11-21T15:09:14;7.40;99.90
12720;DHT22;6424;48.520;11.228;2023-11-21T15:12:00;7.40;99.90
12720;DHT22;6424;48.520;11.228;2023-11-21T15:14:58;7.40;99.90
12720;DHT22;6424;48.520;11.228;2023-11-21T15:17:43;7.40;99.90
12720;DHT22;6424;48.520;11.228;2023-11-21T15:20:27;7.40;99.90
12720;DHT22;6424;48.520;11.228;2023-11-21T15:23:12;7.40;99.90
12720;DHT22;6424;48.520;11.228;2023-11-21T15:26:01;7.40;99.90
12720;DHT22;6424;48.520;11.228;2023-11-21T15:28:48;7.40;99.90
12720;DHT22;6424;48.520;11.228;2023-11-21T15:31:32;7.30;99.90
12720;DHT22;6424;48.520;11.228;2023-11-21T15:34:16;7.30;99.90
12720;DHT22;6424;48.520;11.228;2023-11-21T15:37:01;7.30;99.90
12720;DHT22;6424;48.520;11.228;2023-11-21T15:39:46;7.30;99.90
12720;DHT22;6424;48.520;11.228;2023-11-21T15:42:30;7.30;99.90
12720;DHT22;6424;48.520;11.228;2023-11-21T15:45:15;7.30;99.90
12720;DHT22;6424;48.520;11.228;2023-11-21T15:48:02;7.30;99.90
12720;DHT22;6424;48.520;11.228;2023-11-21T15:50:47;7.30;99.90
12720;DHT22;6424;48.520;11.228;2023-11-21T15:53:34;7.30;99.90
12720;DHT22;6424;48.520;11.228;2023-11-21T15:56:18;7.30;99.90
12720;DHT22;6424;48.520;11.228;2023-11-21T15:59:03;7.40;99.90
12720;DHT22;6424;48.520;11.228;2023-11-21T16:01:47;7.40;99.90
12720;DHT22;6424;48.520;11.228;2023-11-21T16:04:32;7.30;99.90
12720;DHT22;6424;48.520;11.228;2023-11-21T16:07:17;7.30;99.90
12720;DHT22;6424;48.520;11.228;2023-11-21T16:10:02;7.20;99.90
12720;DHT22;6424;48.520;11.228;2023-11-21T16:12:48;7.20;99.90
12720;DHT22;6424;48.520;11.228;2023-11-21T16:15:32;7.20;99.90
12720;DHT22;6424;48.520;11.228;2023-11-21T16:18:18;7.10;99.90
12720;DHT22;6424;48.520;11.228;2023-11-21T16:21:03;7.10;99.90
12720;DHT22;6424;48.520;11.228;2023-11-21T16:23:47;7.10;99.90
12720;DHT22;6424;48.520;11.228;2023-11-21T16:26:32;7.10;99.90
12720;DHT22;6424;48.520;11.228;2023-11-21T16:29:16;7.10;99.90
12720;DHT22;6424;48.520;11.228;2023-11-21T16:32:01;7.10;99.90
12720;DHT22;6424;48.520;11.228;2023-11-21T16:34:46;7.10;99.90
12720;DHT22;6424;48.520;11.228;2023-11-21T16:37:31;7.00;99.90
12720;DHT22;6424;48.520;11.228;2023-11-21T16:40:16;7.00;99.90
12720;DHT22;6424;48.520;11.228;2023-11-21T16:43:02;7.00;99.90
12720;DHT22;6424;48.520;11.228;2023-11-21T16:45:47;7.00;99.90
12720;DHT22;6424;48.520;11.228;2023-11-21T16:48:36;7.00;99.90
12720;DHT22;6424;48.520;11.228;2023-11-21T16:51:21;7.00;99.90
12720;DHT22;6424;48.520;11.228;2023-11-21T16:54:05;7.00;99.90
12720;DHT22;6424;48.520;11.228;2023-11-21T16:56:50;7.00;99.90
12720;DHT22;6424;48.520;11.228;2023-11-21T16:59:34;7.00;99.90
12720;DHT22;6424;48.520;11.228;2023-11-21T17:02:18;7.00;99.90
12720;DHT22;6424;48.520;11.228;2023-11-21T17:05:03;7.00;99.90
12720;DHT22;6424;48.520;11.228;2023-11-21T17:07:49;7.00;99.90
12720;DHT22;6424;48.520;11.228;2023-11-21T17:10:34;7.00;99.90
12720;DHT22;6424;48.520;11.228;2023-11-21T17:13:18;7.00;99.90
12720;DHT22;6424;48.520;11.228;2023-11-21T17:16:03;7.10;99.90
12720;DHT22;6424;48.520;11.228;2023-11-21T17:18:49;7.10;99.90
12720;DHT22;6424;48.520;11.228;2023-11-21T17:21:33;7.10;99.90
12720;DHT22;6424;48.520;11.228;2023-11-21T17:24:17;7.10;99.90
12720;DHT22;6424;48.520;11.228;2023-11-21T17:27:05;7.10;99.90
12720;DHT22;6424;48.520;11.228;2023-11-21T17:29:50;7.10;99.90
12720;DHT22;6424;48.520;11.228;2023-11-21T17:32:34;7.20;99.90
12720;DHT22;6424;48.520;11.228;2023-11-21T17:35:19;7.20;99.90
12720;DHT22;6424;48.520;11.228;2023-11-21T17:38:04;7.10;99.90
12720;DHT22;6424;48.520;11.228;2023-11-21T17:40:49;7.20;99.90
12720;DHT22;6424;48.520;11.228;2023-11-21T17:43:33;7.10;99.90
12720;DHT22;6424;48.520;11.228;2023-11-21T17:46:23;7.20;99.90
12720;DHT22;6424;48.520;11.228;2023-11-21T17:49:08;7.10;99.90
12720;DHT22;6424;48.520;11.228;2023-11-21T17:51:52;7.20;99.90
12720;DHT22;6424;48.520;11.228;2023-11-21T17:54:37;7.20;99.90
12720;DHT22;6424;48.520;11.228;2023-11-21T17:57:24;7.20;99.90